sensor_id;sensor_type;location;lat;lon;timestamp;P1;durP1;ratioP1;P2;durP2;ratioP2
29960;SDS011;16816;44.444;26.152;2022-11-25T00:00:32;3.33;;;3.03;;
29960;SDS011;16816;44.444;26.152;2022-11-25T00:05:37;3.97;;;3.67;;
29960;SDS011;16816;44.444;26.152;2022-11-25T00:10:41;3.17;;;2.90;;
29960;SDS011;16816;44.444;26.152;2022-11-25T00:15:45;3.50;;;3.20;;
29960;SDS011;16816;44.444;26.152;2022-11-25T00:20:50;5.05;;;3.45;;
29960;SDS011;16816;44.444;26.152;2022-11-25T00:25:54;4.80;;;3.72;;
29960;SDS011;16816;44.444;26.152;2022-11-25T00:31:02;4.55;;;4.10;;
29960;SDS011;16816;44.444;26.152;2022-11-25T00:36:12;4.50;;;4.10;;
29960;SDS011;16816;44.444;26.152;2022-11-25T00:41:18;5.82;;;5.25;;
29960;SDS011;16816;44.444;26.152;2022-11-25T00:46:39;5.75;;;5.25;;
29960;SDS011;16816;44.444;26.152;2022-11-25T00:51:45;6.28;;;5.68;;
29960;SDS011;16816;44.444;26.152;2022-11-25T00:56:49;5.85;;;5.35;;
29960;SDS011;16816;44.444;26.152;2022-11-25T01:01:53;6.88;;;6.28;;
29960;SDS011;16816;44.444;26.152;2022-11-25T01:06:58;8.30;;;7.53;;
29960;SDS011;16816;44.444;26.152;2022-11-25T01:12:03;8.57;;;7.80;;
29960;SDS011;16816;44.444;26.152;2022-11-25T01:17:08;10.90;;;9.77;;
29960;SDS011;16816;44.444;26.152;2022-11-25T01:22:13;89.35;;;15.02;;
29960;SDS011;16816;44.444;26.152;2022-11-25T01:27:17;146.98;;;19.20;;
29960;SDS011;16816;44.444;26.152;2022-11-25T01:32:23;153.93;;;20.00;;
29960;SDS011;16816;44.444;26.152;2022-11-25T01:37:28;160.00;;;20.90;;
29960;SDS011;16816;44.444;26.152;2022-11-25T01:42:33;169.65;;;20.73;;
29960;SDS011;16816;44.444;26.152;2022-11-25T01:47:37;177.13;;;22.02;;
29960;SDS011;16816;44.444;26.152;2022-11-25T01:52:43;165.50;;;21.85;;
29960;SDS011;16816;44.444;26.152;2022-11-25T01:57:52;178.82;;;23.65;;
29960;SDS011;16816;44.444;26.152;2022-11-25T02:02:58;184.82;;;24.70;;
29960;SDS011;16816;44.444;26.152;2022-11-25T02:08:04;186.80;;;25.15;;
29960;SDS011;16816;44.444;26.152;2022-11-25T02:13:10;184.88;;;23.92;;
29960;SDS011;16816;44.444;26.152;2022-11-25T02:18:14;147.82;;;20.95;;
29960;SDS011;16816;44.444;26.152;2022-11-25T02:23:24;190.13;;;23.13;;
29960;SDS011;16816;44.444;26.152;2022-11-25T02:28:31;202.55;;;24.63;;
29960;SDS011;16816;44.444;26.152;2022-11-25T02:33:37;204.32;;;26.13;;
29960;SDS011;16816;44.444;26.152;2022-11-25T02:38:42;200.45;;;24.65;;
29960;SDS011;16816;44.444;26.152;2022-11-25T02:43:48;212.57;;;26.25;;
29960;SDS011;16816;44.444;26.152;2022-11-25T02:48:54;193.75;;;24.27;;
29960;SDS011;16816;44.444;26.152;2022-11-25T02:54:11;189.65;;;24.58;;
29960;SDS011;16816;44.444;26.152;2022-11-25T02:59:18;197.93;;;23.65;;
29960;SDS011;16816;44.444;26.152;2022-11-25T03:04:22;186.05;;;24.58;;
29960;SDS011;16816;44.444;26.152;2022-11-25T03:09:26;189.07;;;23.63;;
29960;SDS011;16816;44.444;26.152;2022-11-25T03:14:32;190.18;;;24.38;;
29960;SDS011;16816;44.444;26.152;2022-11-25T03:24:40;199.48;;;22.80;;
29960;SDS011;16816;44.444;26.152;2022-11-25T03:29:46;187.23;;;21.92;;
29960;SDS011;16816;44.444;26.152;2022-11-25T03:34:50;203.18;;;22.83;;
29960;SDS011;16816;44.444;26.152;2022-11-25T03:39:54;201.18;;;25.10;;
29960;SDS011;16816;44.444;26.152;2022-11-25T03:45:00;193.10;;;22.38;;
29960;SDS011;16816;44.444;26.152;2022-11-25T03:50:05;137.85;;;18.23;;
29960;SDS011;16816;44.444;26.152;2022-11-25T04:00:20;110.60;;;15.10;;
29960;SDS011;16816;44.444;26.152;2022-11-25T04:05:30;179.70;;;19.23;;
29960;SDS011;16816;44.444;26.152;2022-11-25T04:10:38;9.40;;;8.63;;
29960;SDS011;16816;44.444;26.152;2022-11-25T04:15:45;158.75;;;17.58;;
29960;SDS011;16816;44.444;26.152;2022-11-25T04:20:51;107.63;;;13.93;;
29960;SDS011;16816;44.444;26.152;2022-11-25T04:25:56;8.45;;;7.78;;
29960;SDS011;16816;44.444;26.152;2022-11-25T04:31:08;7.97;;;7.38;;
29960;SDS011;16816;44.444;26.152;2022-11-25T04:36:16;8.35;;;7.65;;
29960;SDS011;16816;44.444;26.152;2022-11-25T04:41:20;7.35;;;6.75;;
29960;SDS011;16816;44.444;26.152;2022-11-25T04:46:27;7.25;;;6.65;;
29960;SDS011;16816;44.444;26.152;2022-11-25T04:51:36;6.63;;;6.13;;
29960;SDS011;16816;44.444;26.152;2022-11-25T04:56:41;6.47;;;5.72;;
29960;SDS011;16816;44.444;26.152;2022-11-25T05:01:46;151.57;;;15.80;;
29960;SDS011;16816;44.444;26.152;2022-11-25T05:07:04;75.05;;;11.52;;
29960;SDS011;16816;44.444;26.152;2022-11-25T05:12:10;6.78;;;6.18;;
29960;SDS011;16816;44.444;26.152;2022-11-25T05:17:17;7.57;;;6.88;;
29960;SDS011;16816;44.444;26.152;2022-11-25T05:22:23;84.13;;;11.88;;
29960;SDS011;16816;44.444;26.152;2022-11-25T05:27:28;7.75;;;7.05;;
29960;SDS011;16816;44.444;26.152;2022-11-25T05:32:38;7.18;;;6.57;;
29960;SDS011;16816;44.444;26.152;2022-11-25T05:37:45;54.75;;;10.63;;
29960;SDS011;16816;44.444;26.152;2022-11-25T05:42:49;8.43;;;7.10;;
29960;SDS011;16816;44.444;26.152;2022-11-25T05:47:56;62.72;;;9.98;;
29960;SDS011;16816;44.444;26.152;2022-11-25T05:53:02;6.03;;;5.53;;
29960;SDS011;16816;44.444;26.152;2022-11-25T05:58:09;6.13;;;5.50;;
29960;SDS011;16816;44.444;26.152;2022-11-25T06:03:17;5.72;;;5.22;;
29960;SDS011;16816;44.444;26.152;2022-11-25T06:08:21;53.60;;;9.18;;
29960;SDS011;16816;44.444;26.152;2022-11-25T06:13:25;10.75;;;5.90;;
29960;SDS011;16816;44.444;26.152;2022-11-25T06:18:31;8.77;;;5.07;;
29960;SDS011;16816;44.444;26.152;2022-11-25T06:23:37;6.05;;;5.32;;
29960;SDS011;16816;44.444;26.152;2022-11-25T06:28:42;9.15;;;6.43;;
29960;SDS011;16816;44.444;26.152;2022-11-25T06:33:49;5.87;;;4.77;;
29960;SDS011;16816;44.444;26.152;2022-11-25T06:38:54;8.27;;;6.78;;
29960;SDS011;16816;44.444;26.152;2022-11-25T06:43:58;43.42;;;9.07;;
29960;SDS011;16816;44.444;26.152;2022-11-25T06:49:03;49.28;;;9.85;;
29960;SDS011;16816;44.444;26.152;2022-11-25T06:59:12;8.00;;;6.85;;
29960;SDS011;16816;44.444;26.152;2022-11-25T07:04:17;54.65;;;9.80;;
29960;SDS011;16816;44.444;26.152;2022-11-25T07:09:21;8.85;;;6.43;;
29960;SDS011;16816;44.444;26.152;2022-11-25T07:14:26;9.40;;;6.47;;
29960;SDS011;16816;44.444;26.152;2022-11-25T07:19:31;48.50;;;9.20;;
29960;SDS011;16816;44.444;26.152;2022-11-25T07:24:36;39.30;;;9.55;;
29960;SDS011;16816;44.444;26.152;2022-11-25T07:29:41;47.92;;;9.93;;
29960;SDS011;16816;44.444;26.152;2022-11-25T07:35:06;7.90;;;7.00;;
29960;SDS011;16816;44.444;26.152;2022-11-25T07:45:15;8.48;;;7.40;;
29960;SDS011;16816;44.444;26.152;2022-11-25T07:50:21;7.00;;;5.67;;
29960;SDS011;16816;44.444;26.152;2022-11-25T07:55:25;7.47;;;6.78;;
29960;SDS011;16816;44.444;26.152;2022-11-25T08:00:29;10.13;;;8.57;;
29960;SDS011;16816;44.444;26.152;2022-11-25T08:05:34;8.60;;;7.70;;
29960;SDS011;16816;44.444;26.152;2022-11-25T08:10:39;9.40;;;8.40;;
29960;SDS011;16816;44.444;26.152;2022-11-25T08:15:43;95.90;;;13.85;;
29960;SDS011;16816;44.444;26.152;2022-11-25T08:20:48;42.10;;;10.93;;
29960;SDS011;16816;44.444;26.152;2022-11-25T08:25:52;59.15;;;12.50;;
29960;SDS011;16816;44.444;26.152;2022-11-25T08:31:00;14.40;;;9.68;;
29960;SDS011;16816;44.444;26.152;2022-11-25T08:36:07;74.88;;;13.63;;
29960;SDS011;16816;44.444;26.152;2022-11-25T08:41:12;83.13;;;14.07;;
29960;SDS011;16816;44.444;26.152;2022-11-25T08:46:18;23.88;;;11.20;;
29960;SDS011;16816;44.444;26.152;2022-11-25T08:51:26;19.52;;;11.27;;
29960;SDS011;16816;44.444;26.152;2022-11-25T08:56:31;79.90;;;15.77;;
29960;SDS011;16816;44.444;26.152;2022-11-25T09:01:36;90.13;;;17.30;;
29960;SDS011;16816;44.444;26.152;2022-11-25T09:06:41;93.22;;;17.05;;
29960;SDS011;16816;44.444;26.152;2022-11-25T09:11:45;96.20;;;17.45;;
29960;SDS011;16816;44.444;26.152;2022-11-25T09:16:49;88.35;;;18.15;;
29960;SDS011;16816;44.444;26.152;2022-11-25T09:21:55;98.43;;;17.95;;
29960;SDS011;16816;44.444;26.152;2022-11-25T09:26:59;102.50;;;17.98;;
29960;SDS011;16816;44.444;26.152;2022-11-25T09:32:03;94.80;;;17.45;;
29960;SDS011;16816;44.444;26.152;2022-11-25T09:37:09;74.85;;;16.05;;
29960;SDS011;16816;44.444;26.152;2022-11-25T09:42:19;77.32;;;16.98;;
29960;SDS011;16816;44.444;26.152;2022-11-25T09:47:46;93.05;;;17.55;;
29960;SDS011;16816;44.444;26.152;2022-11-25T09:53:02;96.60;;;16.10;;
29960;SDS011;16816;44.444;26.152;2022-11-25T09:58:13;63.65;;;15.88;;
29960;SDS011;16816;44.444;26.152;2022-11-25T10:03:25;58.08;;;17.42;;
29960;SDS011;16816;44.444;26.152;2022-11-25T10:08:38;50.27;;;20.80;;
29960;SDS011;16816;44.444;26.152;2022-11-25T10:13:46;50.83;;;19.98;;
29960;SDS011;16816;44.444;26.152;2022-11-25T10:18:55;46.95;;;20.70;;
29960;SDS011;16816;44.444;26.152;2022-11-25T10:24:04;41.53;;;20.63;;
29960;SDS011;16816;44.444;26.152;2022-11-25T10:29:19;35.17;;;19.90;;
29960;SDS011;16816;44.444;26.152;2022-11-25T10:34:28;28.02;;;20.27;;
29960;SDS011;16816;44.444;26.152;2022-11-25T10:39:37;31.63;;;21.60;;
29960;SDS011;16816;44.444;26.152;2022-11-25T10:44:41;28.98;;;20.30;;
29960;SDS011;16816;44.444;26.152;2022-11-25T10:49:49;31.85;;;21.48;;
29960;SDS011;16816;44.444;26.152;2022-11-25T10:55:09;30.00;;;19.97;;
29960;SDS011;16816;44.444;26.152;2022-11-25T11:00:23;29.10;;;19.88;;
29960;SDS011;16816;44.444;26.152;2022-11-25T11:05:32;29.58;;;21.80;;
29960;SDS011;16816;44.444;26.152;2022-11-25T11:10:38;33.35;;;20.45;;
29960;SDS011;16816;44.444;26.152;2022-11-25T11:20:49;27.42;;;19.52;;
29960;SDS011;16816;44.444;26.152;2022-11-25T11:25:57;24.35;;;17.67;;
29960;SDS011;16816;44.444;26.152;2022-11-25T11:31:03;24.42;;;19.15;;
29960;SDS011;16816;44.444;26.152;2022-11-25T11:36:16;26.13;;;19.33;;
29960;SDS011;16816;44.444;26.152;2022-11-25T11:41:33;22.50;;;17.17;;
29960;SDS011;16816;44.444;26.152;2022-11-25T11:46:42;22.50;;;19.65;;
29960;SDS011;16816;44.444;26.152;2022-11-25T11:51:56;22.58;;;17.75;;
29960;SDS011;16816;44.444;26.152;2022-11-25T11:57:06;21.33;;;19.02;;
29960;SDS011;16816;44.444;26.152;2022-11-25T12:02:27;29.20;;;19.70;;
29960;SDS011;16816;44.444;26.152;2022-11-25T12:07:35;24.00;;;18.27;;
29960;SDS011;16816;44.444;26.152;2022-11-25T12:12:44;25.15;;;18.48;;
29960;SDS011;16816;44.444;26.152;2022-11-25T12:17:53;23.88;;;17.88;;
29960;SDS011;16816;44.444;26.152;2022-11-25T12:23:01;28.08;;;18.48;;
29960;SDS011;16816;44.444;26.152;2022-11-25T12:28:09;23.08;;;18.55;;
29960;SDS011;16816;44.444;26.152;2022-11-25T12:33:15;22.38;;;18.25;;
29960;SDS011;16816;44.444;26.152;2022-11-25T12:38:24;23.10;;;17.73;;
29960;SDS011;16816;44.444;26.152;2022-11-25T12:43:36;21.20;;;18.05;;
29960;SDS011;16816;44.444;26.152;2022-11-25T12:48:43;24.75;;;19.25;;
29960;SDS011;16816;44.444;26.152;2022-11-25T12:53:49;22.48;;;19.50;;
29960;SDS011;16816;44.444;26.152;2022-11-25T12:59:08;25.10;;;19.33;;
29960;SDS011;16816;44.444;26.152;2022-11-25T13:04:31;19.05;;;16.98;;
29960;SDS011;16816;44.444;26.152;2022-11-25T13:09:49;30.60;;;24.67;;
29960;SDS011;16816;44.444;26.152;2022-11-25T13:15:11;23.65;;;17.80;;
29960;SDS011;16816;44.444;26.152;2022-11-25T13:20:37;21.40;;;17.45;;
29960;SDS011;16816;44.444;26.152;2022-11-25T13:25:52;23.50;;;18.23;;
29960;SDS011;16816;44.444;26.152;2022-11-25T13:31:17;25.77;;;20.05;;
29960;SDS011;16816;44.444;26.152;2022-11-25T13:36:23;33.05;;;20.88;;
29960;SDS011;16816;44.444;26.152;2022-11-25T13:52:29;29.85;;;20.77;;
29960;SDS011;16816;44.444;26.152;2022-11-25T13:57:36;27.85;;;22.38;;
29960;SDS011;16816;44.444;26.152;2022-11-25T14:07:49;35.23;;;23.57;;
29960;SDS011;16816;44.444;26.152;2022-11-25T14:12:57;34.88;;;25.45;;
29960;SDS011;16816;44.444;26.152;2022-11-25T14:18:15;36.40;;;25.38;;
29960;SDS011;16816;44.444;26.152;2022-11-25T14:23:52;40.58;;;27.33;;
29960;SDS011;16816;44.444;26.152;2022-11-25T14:29:07;38.05;;;26.02;;
29960;SDS011;16816;44.444;26.152;2022-11-25T14:34:18;39.40;;;26.75;;
29960;SDS011;16816;44.444;26.152;2022-11-25T14:39:25;40.97;;;26.92;;
29960;SDS011;16816;44.444;26.152;2022-11-25T14:44:33;49.58;;;34.30;;
29960;SDS011;16816;44.444;26.152;2022-11-25T14:49:46;42.78;;;26.98;;
29960;SDS011;16816;44.444;26.152;2022-11-25T14:55:12;53.65;;;27.58;;
29960;SDS011;16816;44.444;26.152;2022-11-25T15:00:17;62.90;;;28.17;;
29960;SDS011;16816;44.444;26.152;2022-11-25T15:05:24;76.43;;;28.40;;
29960;SDS011;16816;44.444;26.152;2022-11-25T15:15:52;89.75;;;26.02;;
29960;SDS011;16816;44.444;26.152;2022-11-25T15:20:59;48.50;;;17.77;;
29960;SDS011;16816;44.444;26.152;2022-11-25T15:26:04;93.30;;;24.20;;
29960;SDS011;16816;44.444;26.152;2022-11-25T15:31:19;97.95;;;23.45;;
29960;SDS011;16816;44.444;26.152;2022-11-25T15:36:25;49.80;;;17.33;;
29960;SDS011;16816;44.444;26.152;2022-11-25T15:41:31;55.50;;;16.58;;
29960;SDS011;16816;44.444;26.152;2022-11-25T15:46:36;101.35;;;23.08;;
29960;SDS011;16816;44.444;26.152;2022-11-25T15:51:42;106.32;;;22.67;;
29960;SDS011;16816;44.444;26.152;2022-11-25T15:56:51;104.53;;;22.27;;
29960;SDS011;16816;44.444;26.152;2022-11-25T16:01:56;104.22;;;20.92;;
29960;SDS011;16816;44.444;26.152;2022-11-25T16:07:19;104.82;;;21.00;;
29960;SDS011;16816;44.444;26.152;2022-11-25T16:12:25;107.50;;;21.95;;
29960;SDS011;16816;44.444;26.152;2022-11-25T16:17:28;111.13;;;22.50;;
29960;SDS011;16816;44.444;26.152;2022-11-25T16:22:36;109.78;;;21.73;;
29960;SDS011;16816;44.444;26.152;2022-11-25T16:27:40;106.50;;;20.63;;
29960;SDS011;16816;44.444;26.152;2022-11-25T16:32:45;108.82;;;19.75;;
29960;SDS011;16816;44.444;26.152;2022-11-25T16:37:50;111.82;;;21.98;;
29960;SDS011;16816;44.444;26.152;2022-11-25T16:42:54;23.02;;;12.10;;
29960;SDS011;16816;44.444;26.152;2022-11-25T16:47:58;114.07;;;22.80;;
29960;SDS011;16816;44.444;26.152;2022-11-25T16:53:03;116.97;;;20.70;;
29960;SDS011;16816;44.444;26.152;2022-11-25T16:58:13;57.17;;;15.57;;
29960;SDS011;16816;44.444;26.152;2022-11-25T17:03:19;120.82;;;23.13;;
29960;SDS011;16816;44.444;26.152;2022-11-25T17:08:28;117.30;;;21.92;;
29960;SDS011;16816;44.444;26.152;2022-11-25T17:13:32;118.43;;;22.05;;
29960;SDS011;16816;44.444;26.152;2022-11-25T17:18:36;111.10;;;20.60;;
29960;SDS011;16816;44.444;26.152;2022-11-25T17:23:42;120.35;;;22.50;;
29960;SDS011;16816;44.444;26.152;2022-11-25T17:28:48;131.10;;;29.33;;
29960;SDS011;16816;44.444;26.152;2022-11-25T17:33:54;155.95;;;44.08;;
29960;SDS011;16816;44.444;26.152;2022-11-25T17:38:59;141.77;;;32.83;;
29960;SDS011;16816;44.444;26.152;2022-11-25T17:44:03;141.50;;;29.53;;
29960;SDS011;16816;44.444;26.152;2022-11-25T17:49:09;139.80;;;26.77;;
29960;SDS011;16816;44.444;26.152;2022-11-25T17:54:17;143.18;;;32.15;;
29960;SDS011;16816;44.444;26.152;2022-11-25T17:59:21;152.67;;;38.60;;
29960;SDS011;16816;44.444;26.152;2022-11-25T18:04:27;159.63;;;42.58;;
29960;SDS011;16816;44.444;26.152;2022-11-25T18:09:37;159.60;;;45.03;;
29960;SDS011;16816;44.444;26.152;2022-11-25T18:14:41;164.82;;;42.60;;
29960;SDS011;16816;44.444;26.152;2022-11-25T18:19:46;86.53;;;24.95;;
29960;SDS011;16816;44.444;26.152;2022-11-25T18:24:57;166.65;;;43.47;;
29960;SDS011;16816;44.444;26.152;2022-11-25T18:30:14;175.23;;;49.67;;
29960;SDS011;16816;44.444;26.152;2022-11-25T18:35:22;162.68;;;40.90;;
29960;SDS011;16816;44.444;26.152;2022-11-25T18:40:31;160.23;;;35.85;;
29960;SDS011;16816;44.444;26.152;2022-11-25T18:45:36;159.88;;;34.92;;
29960;SDS011;16816;44.444;26.152;2022-11-25T18:50:41;159.73;;;37.20;;
29960;SDS011;16816;44.444;26.152;2022-11-25T18:55:47;166.13;;;35.42;;
29960;SDS011;16816;44.444;26.152;2022-11-25T19:00:53;163.57;;;33.20;;
29960;SDS011;16816;44.444;26.152;2022-11-25T19:05:57;87.40;;;21.97;;
29960;SDS011;16816;44.444;26.152;2022-11-25T19:11:04;163.70;;;32.17;;
29960;SDS011;16816;44.444;26.152;2022-11-25T19:16:10;167.52;;;33.38;;
29960;SDS011;16816;44.444;26.152;2022-11-25T19:21:16;169.02;;;34.50;;
29960;SDS011;16816;44.444;26.152;2022-11-25T19:26:23;166.65;;;32.45;;
29960;SDS011;16816;44.444;26.152;2022-11-25T19:31:29;169.75;;;34.70;;
29960;SDS011;16816;44.444;26.152;2022-11-25T19:36:34;169.57;;;33.38;;
29960;SDS011;16816;44.444;26.152;2022-11-25T19:41:40;174.23;;;34.08;;
29960;SDS011;16816;44.444;26.152;2022-11-25T19:46:45;97.45;;;21.83;;
29960;SDS011;16816;44.444;26.152;2022-11-25T19:52:12;169.02;;;31.60;;
29960;SDS011;16816;44.444;26.152;2022-11-25T19:57:21;172.73;;;32.72;;
29960;SDS011;16816;44.444;26.152;2022-11-25T20:02:27;168.65;;;31.65;;
29960;SDS011;16816;44.444;26.152;2022-11-25T20:07:31;171.60;;;30.35;;
29960;SDS011;16816;44.444;26.152;2022-11-25T20:12:37;159.35;;;27.60;;
29960;SDS011;16816;44.444;26.152;2022-11-25T20:17:42;167.38;;;28.60;;
29960;SDS011;16816;44.444;26.152;2022-11-25T20:27:56;165.90;;;30.50;;
29960;SDS011;16816;44.444;26.152;2022-11-25T20:33:00;80.88;;;19.70;;
29960;SDS011;16816;44.444;26.152;2022-11-25T20:38:04;158.68;;;28.60;;
29960;SDS011;16816;44.444;26.152;2022-11-25T20:43:12;160.82;;;29.30;;
29960;SDS011;16816;44.444;26.152;2022-11-25T20:48:26;173.57;;;31.95;;
29960;SDS011;16816;44.444;26.152;2022-11-25T20:53:31;175.00;;;31.38;;
29960;SDS011;16816;44.444;26.152;2022-11-25T20:58:36;175.15;;;30.90;;
29960;SDS011;16816;44.444;26.152;2022-11-25T21:03:40;99.90;;;19.13;;
29960;SDS011;16816;44.444;26.152;2022-11-25T21:08:45;168.35;;;28.13;;
29960;SDS011;16816;44.444;26.152;2022-11-25T21:18:56;178.48;;;27.08;;
29960;SDS011;16816;44.444;26.152;2022-11-25T21:24:00;169.93;;;27.65;;
29960;SDS011;16816;44.444;26.152;2022-11-25T21:29:09;173.77;;;28.00;;
29960;SDS011;16816;44.444;26.152;2022-11-25T21:34:16;183.25;;;27.80;;
29960;SDS011;16816;44.444;26.152;2022-11-25T21:39:24;186.85;;;29.70;;
29960;SDS011;16816;44.444;26.152;2022-11-25T21:44:31;181.57;;;27.75;;
29960;SDS011;16816;44.444;26.152;2022-11-25T21:49:38;174.80;;;24.92;;
29960;SDS011;16816;44.444;26.152;2022-11-25T21:54:42;174.95;;;24.75;;
29960;SDS011;16816;44.444;26.152;2022-11-25T21:59:47;174.18;;;24.50;;
29960;SDS011;16816;44.444;26.152;2022-11-25T22:04:52;178.95;;;25.88;;
29960;SDS011;16816;44.444;26.152;2022-11-25T22:09:56;172.57;;;23.70;;
29960;SDS011;16816;44.444;26.152;2022-11-25T22:15:01;162.20;;;22.15;;
29960;SDS011;16816;44.444;26.152;2022-11-25T22:20:13;165.35;;;20.63;;
29960;SDS011;16816;44.444;26.152;2022-11-25T22:25:22;165.00;;;21.75;;
29960;SDS011;16816;44.444;26.152;2022-11-25T22:30:29;147.57;;;18.77;;
29960;SDS011;16816;44.444;26.152;2022-11-25T22:35:33;141.27;;;17.63;;
29960;SDS011;16816;44.444;26.152;2022-11-25T22:40:37;127.80;;;17.35;;
29960;SDS011;16816;44.444;26.152;2022-11-25T22:45:43;138.15;;;16.85;;
29960;SDS011;16816;44.444;26.152;2022-11-25T22:55:51;106.53;;;14.73;;
29960;SDS011;16816;44.444;26.152;2022-11-25T23:01:01;71.28;;;12.60;;
29960;SDS011;16816;44.444;26.152;2022-11-25T23:06:05;107.03;;;14.02;;
29960;SDS011;16816;44.444;26.152;2022-11-25T23:11:12;25.92;;;11.10;;
29960;SDS011;16816;44.444;26.152;2022-11-25T23:16:19;9.73;;;8.93;;
29960;SDS011;16816;44.444;26.152;2022-11-25T23:21:24;62.90;;;12.15;;
29960;SDS011;16816;44.444;26.152;2022-11-25T23:26:30;9.73;;;9.00;;
29960;SDS011;16816;44.444;26.152;2022-11-25T23:31:37;32.80;;;11.43;;
29960;SDS011;16816;44.444;26.152;2022-11-25T23:41:47;16.75;;;10.43;;
29960;SDS011;16816;44.444;26.152;2022-11-25T23:46:53;9.63;;;8.82;;
29960;SDS011;16816;44.444;26.152;2022-11-25T23:51:59;11.55;;;10.02;;
29960;SDS011;16816;44.444;26.152;2022-11-25T23:57:11;9.35;;;8.48;;
